Time;durP1;ratioP1;P1;durP2;ratioP2;P2;SDS_P1;SDS_P2;PMS_P1;PMS_P2;Temp;Humidity;BMP_temperature;BMP_pressure;BME280_temperature;BME280_humidity;BME280_pressure;Samples;Min_cycle;Max_cycle;Signal;HPM_P1;HPM_P2
2023/08/10 00:00:12;;;;;;;3.65;1.92;;;;;;;;;;5014246;28;20183;-70
2023/08/10 00:02:37;;;;;;;3.10;2.05;;;;;;;;;;5013714;28;20195;-70
2023/08/10 00:05:02;;;;;;;4.43;1.83;;;;;;;;;;5012069;28;20185;-69
2023/08/10 00:07:27;;;;;;;3.42;1.67;;;;;;;;;;5004029;28;20226;-70
2023/08/10 00:09:53;;;;;;;7.85;2.38;;;;;;;;;;5012561;28;20218;-70
2023/08/10 00:12:18;;;;;;;4.55;2.60;;;;;;;;;;5017873;28;20191;-70
2023/08/10 00:14:43;;;;;;;4.63;2.35;;;;;;;;;;5012986;28;20186;-70
2023/08/10 00:17:08;;;;;;;4.60;2.40;;;;;;;;;;5013832;28;20198;-70
2023/08/10 00:19:33;;;;;;;5.57;2.25;;;;;;;;;;5012363;28;20189;-70
2023/08/10 00:21:59;;;;;;;8.32;3.13;;;;;;;;;;5010142;28;20276;-70
2023/08/10 00:24:24;;;;;;;4.78;3.25;;;;;;;;;;5009810;28;20192;-70
2023/08/10 00:26:49;;;;;;;3.20;2.30;;;;;;;;;;5009717;28;20194;-70
2023/08/10 00:29:14;;;;;;;4.38;2.80;;;;;;;;;;5007860;28;20243;-70
2023/08/10 00:31:40;;;;;;;4.32;2.22;;;;;;;;;;5009217;28;20906;-70
2023/08/10 00:34:05;;;;;;;12.02;2.95;;;;;;;;;;5009540;28;20269;-70
2023/08/10 00:36:30;;;;;;;7.53;2.92;;;;;;;;;;5013988;28;20577;-70
2023/08/10 00:38:56;;;;;;;9.32;3.00;;;;;;;;;;5003651;28;20715;-70
2023/08/10 00:41:21;;;;;;;5.38;3.15;;;;;;;;;;5004866;28;20281;-70
2023/08/10 00:43:47;;;;;;;5.25;3.08;;;;;;;;;;5007855;28;20317;-70
2023/08/10 00:46:12;;;;;;;4.25;3.15;;;;;;;;;;5010212;28;20183;-70
2023/08/10 00:48:37;;;;;;;5.97;3.35;;;;;;;;;;5008235;28;20217;-70
2023/08/10 00:51:03;;;;;;;4.35;3.33;;;;;;;;;;5004524;28;20206;-70
2023/08/10 00:53:28;;;;;;;5.38;2.88;;;;;;;;;;5009283;28;20660;-70
2023/08/10 00:55:54;;;;;;;5.35;3.30;;;;;;;;;;5008821;28;20179;-70
2023/08/10 00:58:20;;;;;;;7.10;3.00;;;;;;;;;;5006263;28;20233;-70
2023/08/10 01:00:49;;;;;;;4.85;2.75;;;;;;;;;;5007519;28;20282;-70
2023/08/10 01:03:15;;;;;;;5.57;3.40;;;;;;;;;;5007447;28;20212;-70
2023/08/10 01:05:58;;;;;;;5.78;3.80;;;;;;;;;;5009414;28;20566;-70
2023/08/10 01:08:31;;;;;;;5.78;3.80;;;;;;;;;;5006564;28;20225;-70
2023/08/10 01:11:03;;;;;;;5.03;2.83;;;;;;;;;;5009544;28;20277;-70
2023/08/10 01:13:34;;;;;;;4.75;3.28;;;;;;;;;;5010902;28;20236;-70
2023/08/10 01:16:03;;;;;;;4.72;2.78;;;;;;;;;;5011114;28;20236;-70
2023/08/10 01:18:29;;;;;;;4.45;3.25;;;;;;;;;;5006764;28;20219;-70
2023/08/10 01:20:54;;;;;;;5.43;3.03;;;;;;;;;;5010437;28;20249;-70
2023/08/10 01:23:26;;;;;;;4.43;3.00;;;;;;;;;;5008051;28;20743;-70
2023/08/10 01:25:52;;;;;;;5.82;2.65;;;;;;;;;;5010175;28;20750;-70
2023/08/10 01:28:17;;;;;;;5.82;2.85;;;;;;;;;;5007835;28;20327;-70
2023/08/10 01:30:44;;;;;;;4.45;2.80;;;;;;;;;;5007408;28;20282;-70
2023/08/10 01:33:09;;;;;;;5.20;2.45;;;;;;;;;;5008585;28;20185;-70
2023/08/10 01:35:37;;;;;;;7.38;2.83;;;;;;;;;;5008761;28;20190;-70
2023/08/10 01:38:03;;;;;;;5.15;3.45;;;;;;;;;;5008379;28;20850;-70
2023/08/10 01:40:29;;;;;;;4.07;2.58;;;;;;;;;;5010520;28;20209;-70
2023/08/10 01:42:54;;;;;;;4.13;2.90;;;;;;;;;;5008365;28;20190;-70
2023/08/10 01:45:19;;;;;;;6.53;2.83;;;;;;;;;;5005579;28;20271;-70
2023/08/10 01:47:49;;;;;;;5.28;2.60;;;;;;;;;;5008474;28;20439;-70
2023/08/10 01:50:16;;;;;;;5.28;3.13;;;;;;;;;;5004285;28;20277;-70
2023/08/10 01:52:43;;;;;;;4.55;3.00;;;;;;;;;;5006191;28;20324;-70
2023/08/10 01:55:09;;;;;;;4.32;2.80;;;;;;;;;;5006563;28;20202;-70
2023/08/10 01:57:35;;;;;;;3.53;2.72;;;;;;;;;;5005971;28;20206;-70
2023/08/10 02:00:00;;;;;;;3.40;2.85;;;;;;;;;;5006506;28;20312;-70
2023/08/10 02:02:25;;;;;;;3.97;2.90;;;;;;;;;;5006894;28;20178;-70
2023/08/10 02:04:51;;;;;;;4.15;2.90;;;;;;;;;;5007406;28;20273;-70
2023/08/10 02:07:16;;;;;;;4.15;3.22;;;;;;;;;;5006733;28;20672;-70
2023/08/10 02:09:41;;;;;;;7.10;3.60;;;;;;;;;;5007796;28;20769;-70
2023/08/10 02:12:07;;;;;;;4.88;3.15;;;;;;;;;;5007387;28;20179;-70
2023/08/10 02:14:32;;;;;;;4.78;2.80;;;;;;;;;;5001379;28;20265;-70
2023/08/10 02:16:57;;;;;;;4.65;3.13;;;;;;;;;;5007179;28;20221;-70
2023/08/10 02:19:22;;;;;;;3.85;3.00;;;;;;;;;;5002246;28;20269;-70
2023/08/10 02:21:48;;;;;;;7.40;3.10;;;;;;;;;;5007246;28;20620;-70
2023/08/10 02:24:13;;;;;;;7.72;3.45;;;;;;;;;;5005067;28;20556;-71
2023/08/10 02:26:39;;;;;;;5.50;3.45;;;;;;;;;;5007532;28;20620;-70
2023/08/10 02:29:04;;;;;;;4.75;3.10;;;;;;;;;;5006981;28;20575;-70
2023/08/10 02:31:31;;;;;;;4.85;3.33;;;;;;;;;;5007913;28;20563;-70
2023/08/10 02:33:56;;;;;;;17.23;3.47;;;;;;;;;;5005748;28;20178;-70
2023/08/10 02:36:21;;;;;;;5.07;3.05;;;;;;;;;;5007795;28;20197;-70
2023/08/10 02:38:46;;;;;;;5.90;3.42;;;;;;;;;;5008719;22;20249;-67
2023/08/10 02:41:12;;;;;;;9.85;4.68;;;;;;;;;;4987236;28;20198;-67
2023/08/10 02:43:37;;;;;;;9.80;4.40;;;;;;;;;;4987393;28;20188;-66
2023/08/10 02:46:02;;;;;;;6.00;4.05;;;;;;;;;;4985091;28;20919;-65
2023/08/10 02:48:28;;;;;;;5.82;3.90;;;;;;;;;;4969285;28;20218;-67
2023/08/10 02:50:54;;;;;;;5.90;3.60;;;;;;;;;;4986613;28;20237;-65
2023/08/10 02:53:19;;;;;;;6.80;3.80;;;;;;;;;;4987673;28;20205;-67
2023/08/10 02:55:44;;;;;;;7.75;4.35;;;;;;;;;;4986652;28;20435;-67
2023/08/10 02:58:10;;;;;;;7.53;4.43;;;;;;;;;;4984897;28;20255;-67
2023/08/10 03:00:36;;;;;;;6.32;4.60;;;;;;;;;;4987076;28;20265;-66
2023/08/10 03:03:01;;;;;;;10.05;4.55;;;;;;;;;;4987331;28;20209;-66
2023/08/10 03:05:26;;;;;;;5.47;3.80;;;;;;;;;;4986952;28;20677;-66
2023/08/10 03:07:52;;;;;;;7.40;4.55;;;;;;;;;;4987294;28;20835;-66
2023/08/10 03:10:17;;;;;;;10.57;4.00;;;;;;;;;;4986569;28;20625;-67
2023/08/10 03:12:42;;;;;;;9.73;4.35;;;;;;;;;;4986814;28;20664;-66
2023/08/10 03:15:09;;;;;;;8.32;4.93;;;;;;;;;;4986929;28;20637;-66
2023/08/10 03:17:34;;;;;;;7.47;4.57;;;;;;;;;;4987676;28;20211;-66
2023/08/10 03:19:59;;;;;;;7.65;5.10;;;;;;;;;;4965155;28;20280;-67
2023/08/10 03:22:27;;;;;;;12.63;4.75;;;;;;;;;;4989333;28;20234;-66
2023/08/10 03:24:52;;;;;;;7.97;5.65;;;;;;;;;;4990484;28;20199;-67
2023/08/10 03:27:17;;;;;;;5.28;3.83;;;;;;;;;;4972200;28;20207;-67
2023/08/10 03:29:43;;;;;;;9.00;5.82;;;;;;;;;;4972255;28;20211;-66
2023/08/10 03:32:08;;;;;;;7.38;5.35;;;;;;;;;;4990069;28;20180;-67
2023/08/10 03:34:33;;;;;;;12.05;5.55;;;;;;;;;;4991717;28;20198;-67
2023/08/10 03:36:58;;;;;;;8.32;4.90;;;;;;;;;;4989797;28;20187;-66
2023/08/10 03:39:23;;;;;;;7.80;5.60;;;;;;;;;;4990347;28;20222;-66
2023/08/10 03:41:49;;;;;;;9.50;5.10;;;;;;;;;;4989893;28;20186;-67
2023/08/10 03:44:14;;;;;;;6.18;5.45;;;;;;;;;;4992194;28;20294;-66
2023/08/10 03:46:39;;;;;;;6.53;4.78;;;;;;;;;;4991063;28;20253;-67
2023/08/10 03:49:05;;;;;;;9.90;5.57;;;;;;;;;;4991471;28;20215;-66
2023/08/10 03:51:30;;;;;;;6.97;5.57;;;;;;;;;;4990096;28;20188;-67
2023/08/10 03:53:55;;;;;;;9.07;5.20;;;;;;;;;;4991698;28;20946;-66
2023/08/10 03:56:21;;;;;;;7.22;5.72;;;;;;;;;;4990801;28;20223;-67
2023/08/10 03:58:46;;;;;;;6.28;5.20;;;;;;;;;;4988687;28;20203;-67
2023/08/10 04:01:12;;;;;;;8.15;4.80;;;;;;;;;;4988761;28;20309;-67
2023/08/10 04:03:37;;;;;;;6.75;4.55;;;;;;;;;;4991934;28;20283;-67
2023/08/10 04:06:02;;;;;;;10.18;5.30;;;;;;;;;;4989054;28;20684;-67
2023/08/10 04:08:27;;;;;;;5.03;4.05;;;;;;;;;;4990685;28;20641;-67
2023/08/10 04:10:52;;;;;;;8.43;4.80;;;;;;;;;;4990673;28;21446;-67
2023/08/10 04:13:18;;;;;;;6.90;4.78;;;;;;;;;;4989922;28;20625;-67
2023/08/10 04:15:43;;;;;;;8.07;4.68;;;;;;;;;;4989586;28;20201;-67
2023/08/10 04:18:08;;;;;;;8.23;5.25;;;;;;;;;;4990433;28;20342;-68
2023/08/10 04:20:34;;;;;;;8.85;5.90;;;;;;;;;;4989260;28;20666;-66
2023/08/10 04:22:59;;;;;;;8.35;5.68;;;;;;;;;;4984837;28;20332;-67
2023/08/10 04:25:25;;;;;;;7.75;5.80;;;;;;;;;;4988345;28;20195;-67
2023/08/10 04:27:50;;;;;;;9.20;6.00;;;;;;;;;;4989619;28;20211;-67
2023/08/10 04:30:16;;;;;;;8.18;5.68;;;;;;;;;;4989382;28;20230;-66
2023/08/10 04:32:41;;;;;;;7.60;5.97;;;;;;;;;;4988435;28;20183;-67
2023/08/10 04:35:07;;;;;;;6.10;5.38;;;;;;;;;;4988911;28;21476;-66
2023/08/10 04:37:32;;;;;;;9.77;5.78;;;;;;;;;;4988251;28;20258;-66
2023/08/10 04:39:58;;;;;;;7.68;6.00;;;;;;;;;;4989308;28;20214;-67
2023/08/10 04:42:24;;;;;;;12.13;5.90;;;;;;;;;;4989071;28;20192;-67
2023/08/10 04:44:49;;;;;;;6.93;6.18;;;;;;;;;;4989114;28;20622;-66
2023/08/10 04:47:14;;;;;;;9.13;7.00;;;;;;;;;;4989153;28;20348;-67
2023/08/10 04:49:39;;;;;;;11.30;6.82;;;;;;;;;;4967553;28;20223;-66
2023/08/10 04:52:05;;;;;;;10.43;7.25;;;;;;;;;;4987790;28;21057;-67
2023/08/10 04:54:30;;;;;;;9.88;6.32;;;;;;;;;;4989725;28;20188;-67
2023/08/10 04:56:55;;;;;;;9.18;6.82;;;;;;;;;;4989117;28;20637;-66
2023/08/10 04:59:21;;;;;;;8.88;5.65;;;;;;;;;;4987404;28;20673;-67
2023/08/10 05:01:46;;;;;;;8.48;5.38;;;;;;;;;;4987780;28;20187;-67
2023/08/10 05:04:14;;;;;;;7.85;5.68;;;;;;;;;;4985998;28;20190;-67
2023/08/10 05:06:39;;;;;;;10.48;6.55;;;;;;;;;;4988508;28;20183;-67
2023/08/10 05:09:04;;;;;;;9.70;5.55;;;;;;;;;;4987187;28;20265;-67
2023/08/10 05:11:30;;;;;;;7.13;5.18;;;;;;;;;;4988291;28;20305;-67
2023/08/10 05:13:55;;;;;;;8.40;6.68;;;;;;;;;;4988359;28;20269;-66
2023/08/10 05:16:21;;;;;;;11.93;6.15;;;;;;;;;;4988842;28;20194;-67
2023/08/10 05:18:46;;;;;;;7.88;5.97;;;;;;;;;;4987567;28;20215;-67
2023/08/10 05:21:11;;;;;;;8.27;5.97;;;;;;;;;;4969515;28;20570;-67
2023/08/10 05:23:37;;;;;;;9.15;7.07;;;;;;;;;;4988409;28;20700;-67
2023/08/10 05:26:03;;;;;;;10.07;6.43;;;;;;;;;;4971628;28;20660;-67
2023/08/10 05:28:28;;;;;;;6.90;4.80;;;;;;;;;;4986864;28;20268;-67
2023/08/10 05:30:53;;;;;;;9.45;6.05;;;;;;;;;;4988755;28;20270;-67
2023/08/10 05:33:18;;;;;;;6.53;5.28;;;;;;;;;;4969245;28;20178;-67
2023/08/10 05:35:44;;;;;;;11.30;5.65;;;;;;;;;;4972328;28;20282;-66
2023/08/10 05:38:09;;;;;;;9.18;5.35;;;;;;;;;;4986516;28;20246;-67
2023/08/10 05:40:34;;;;;;;6.28;5.25;;;;;;;;;;4987381;28;20387;-67
2023/08/10 05:42:59;;;;;;;6.10;5.00;;;;;;;;;;4988623;28;20183;-67
2023/08/10 05:45:25;;;;;;;6.10;4.68;;;;;;;;;;4983717;28;20477;-67
2023/08/10 05:47:51;;;;;;;7.20;5.28;;;;;;;;;;4984089;28;20207;-67
2023/08/10 05:50:16;;;;;;;10.10;4.97;;;;;;;;;;4980761;28;20257;-66
2023/08/10 05:52:43;;;;;;;7.35;4.85;;;;;;;;;;4984410;28;20559;-67
2023/08/10 05:55:08;;;;;;;7.13;5.68;;;;;;;;;;4986441;28;20849;-66
2023/08/10 05:57:33;;;;;;;7.13;5.00;;;;;;;;;;4988180;28;20206;-67
2023/08/10 05:59:59;;;;;;;9.10;5.65;;;;;;;;;;4989184;28;20215;-67
2023/08/10 06:02:24;;;;;;;7.32;5.18;;;;;;;;;;4974001;28;20893;-67
2023/08/10 06:04:49;;;;;;;8.50;5.45;;;;;;;;;;4982749;28;20206;-66
2023/08/10 06:07:15;;;;;;;6.22;4.68;;;;;;;;;;4987728;28;20295;-67
2023/08/10 06:09:40;;;;;;;8.35;5.45;;;;;;;;;;4983903;28;20215;-66
2023/08/10 06:12:06;;;;;;;6.78;4.60;;;;;;;;;;4988692;28;20191;-66
2023/08/10 06:14:31;;;;;;;6.35;5.25;;;;;;;;;;4986212;28;20194;-67
2023/08/10 06:16:57;;;;;;;6.07;4.65;;;;;;;;;;4988620;28;20187;-66
2023/08/10 06:19:22;;;;;;;7.28;4.55;;;;;;;;;;4984794;28;20738;-67
2023/08/10 06:21:48;;;;;;;6.32;3.63;;;;;;;;;;4965049;28;20249;-67
2023/08/10 06:24:13;;;;;;;4.93;4.10;;;;;;;;;;4967386;28;20198;-67
2023/08/10 06:26:41;;;;;;;4.53;3.67;;;;;;;;;;4967715;28;20560;-67
2023/08/10 06:29:06;;;;;;;6.63;3.53;;;;;;;;;;4968158;28;20242;-67
2023/08/10 06:31:31;;;;;;;3.90;3.30;;;;;;;;;;4970619;28;20187;-67
2023/08/10 06:33:57;;;;;;;4.07;2.85;;;;;;;;;;4970448;28;21408;-67
2023/08/10 06:36:22;;;;;;;6.35;3.45;;;;;;;;;;4971879;28;21980;-67
2023/08/10 06:38:47;;;;;;;6.32;3.20;;;;;;;;;;4978834;28;20695;-66
2023/08/10 06:41:12;;;;;;;3.78;2.58;;;;;;;;;;4983789;28;20673;-66
2023/08/10 06:43:38;;;;;;;3.95;2.85;;;;;;;;;;4982619;28;20253;-66
2023/08/10 06:46:03;;;;;;;4.20;2.88;;;;;;;;;;4988839;28;20214;-67
2023/08/10 06:48:28;;;;;;;4.95;3.22;;;;;;;;;;4985050;28;20302;-67
2023/08/10 06:50:53;;;;;;;4.93;2.83;;;;;;;;;;4987586;28;20195;-66
2023/08/10 06:53:18;;;;;;;3.40;2.33;;;;;;;;;;4986856;28;20210;-67
2023/08/10 06:55:45;;;;;;;3.00;2.08;;;;;;;;;;4968744;28;20185;-66
2023/08/10 06:58:12;;;;;;;5.55;2.55;;;;;;;;;;4969993;28;20219;-67
2023/08/10 07:00:37;;;;;;;5.57;2.10;;;;;;;;;;4984125;28;20214;-66
2023/08/10 07:03:03;;;;;;;5.90;2.65;;;;;;;;;;4980899;28;20274;-66
2023/08/10 07:05:31;;;;;;;5.35;2.83;;;;;;;;;;4986864;28;20576;-66
2023/08/10 07:07:56;;;;;;;6.10;3.03;;;;;;;;;;4988039;28;20212;-66
2023/08/10 07:10:22;;;;;;;3.63;2.40;;;;;;;;;;4988989;28;20285;-67
2023/08/10 07:12:47;;;;;;;6.60;2.38;;;;;;;;;;4982477;28;20186;-66
2023/08/10 07:15:12;;;;;;;2.83;1.75;;;;;;;;;;4987208;28;20264;-66
2023/08/10 07:17:38;;;;;;;3.17;2.25;;;;;;;;;;4974751;28;20244;-66
2023/08/10 07:20:06;;;;;;;3.53;2.70;;;;;;;;;;4974858;28;20779;-66
2023/08/10 07:22:32;;;;;;;4.85;2.13;;;;;;;;;;4968971;28;20249;-66
2023/08/10 07:25:03;;;;;;;3.63;2.83;;;;;;;;;;4970381;28;20183;-66
2023/08/10 07:27:28;;;;;;;4.18;2.50;;;;;;;;;;4973510;28;20306;-63
2023/08/10 07:29:54;;;;;;;3.22;2.10;;;;;;;;;;4952519;28;20273;-65
2023/08/10 07:32:19;;;;;;;3.23;2.50;;;;;;;;;;4968849;28;20237;-65
2023/08/10 07:34:44;;;;;;;4.00;2.50;;;;;;;;;;4965808;28;20425;-65
2023/08/10 07:37:10;;;;;;;5.65;2.47;;;;;;;;;;4982262;28;20199;-66
2023/08/10 07:39:35;;;;;;;6.40;2.45;;;;;;;;;;4986757;28;20655;-66
2023/08/10 07:42:01;;;;;;;5.05;2.60;;;;;;;;;;4987741;28;20187;-65
2023/08/10 07:44:27;;;;;;;5.35;2.40;;;;;;;;;;4987905;28;20733;-66
2023/08/10 07:46:52;;;;;;;4.28;2.17;;;;;;;;;;4987508;28;20201;-66
2023/08/10 07:49:17;;;;;;;4.85;2.35;;;;;;;;;;4987179;28;20764;-67
2023/08/10 07:51:46;;;;;;;5.70;2.88;;;;;;;;;;4988703;28;20187;-66
2023/08/10 07:54:11;;;;;;;5.55;3.20;;;;;;;;;;4986003;28;20780;-66
2023/08/10 07:56:37;;;;;;;6.03;3.38;;;;;;;;;;4987680;28;20192;-66
2023/08/10 07:59:02;;;;;;;5.20;3.40;;;;;;;;;;4987443;28;20278;-66
2023/08/10 08:01:27;;;;;;;5.25;4.05;;;;;;;;;;4987504;28;20182;-66
2023/08/10 08:03:52;;;;;;;7.15;3.97;;;;;;;;;;4987346;28;20223;-66
2023/08/10 08:06:18;;;;;;;6.28;4.50;;;;;;;;;;4987327;28;20215;-66
2023/08/10 08:08:43;;;;;;;6.80;4.25;;;;;;;;;;4989184;28;20261;-66
2023/08/10 08:11:08;;;;;;;6.45;4.60;;;;;;;;;;4990458;28;20246;-66
2023/08/10 08:13:33;;;;;;;8.13;4.90;;;;;;;;;;4990690;28;20645;-66
2023/08/10 08:15:59;;;;;;;6.53;4.03;;;;;;;;;;4990659;28;20951;-66
2023/08/10 08:18:42;;;;;;;6.82;3.55;;;;;;;;;;4991673;28;20210;-66
2023/08/10 08:21:09;;;;;;;11.75;3.75;;;;;;;;;;4990222;28;20211;-67
2023/08/10 08:23:34;;;;;;;7.90;4.10;;;;;;;;;;4984290;28;20190;-67
2023/08/10 08:25:59;;;;;;;4.53;3.60;;;;;;;;;;4990275;28;20662;-67
2023/08/10 08:28:25;;;;;;;5.43;3.08;;;;;;;;;;4990132;28;20577;-67
2023/08/10 08:30:50;;;;;;;7.25;2.67;;;;;;;;;;4991013;28;20622;-67
2023/08/10 08:33:16;;;;;;;6.35;3.47;;;;;;;;;;4990494;28;20221;-67
2023/08/10 08:35:43;;;;;;;7.90;3.00;;;;;;;;;;4990326;28;20560;-67
2023/08/10 08:38:08;;;;;;;5.85;2.60;;;;;;;;;;4984931;23;20273;-69
2023/08/10 08:40:34;;;;;;;6.77;2.83;;;;;;;;;;5010707;28;20190;-70
2023/08/10 08:42:59;;;;;;;5.07;2.10;;;;;;;;;;5009579;28;21209;-69
2023/08/10 08:45:24;;;;;;;3.60;2.10;;;;;;;;;;5009052;28;20179;-70
2023/08/10 08:47:51;;;;;;;4.10;1.80;;;;;;;;;;5007562;28;20293;-70
2023/08/10 08:50:17;;;;;;;2.25;1.55;;;;;;;;;;4990293;28;20215;-70
2023/08/10 08:52:43;;;;;;;2.95;1.95;;;;;;;;;;4990502;28;20190;-70
2023/08/10 08:55:10;;;;;;;5.32;2.30;;;;;;;;;;4991515;28;20634;-70
2023/08/10 08:57:35;;;;;;;4.25;1.77;;;;;;;;;;4989818;28;20281;-70
2023/08/10 09:00:01;;;;;;;4.70;1.92;;;;;;;;;;4990935;28;20286;-71
2023/08/10 09:02:26;;;;;;;2.45;1.63;;;;;;;;;;4972755;28;20191;-70
2023/08/10 09:04:52;;;;;;;3.15;1.70;;;;;;;;;;4969990;28;20206;-70
2023/08/10 09:07:17;;;;;;;4.30;1.92;;;;;;;;;;4988603;28;20665;-70
2023/08/10 09:09:43;;;;;;;3.75;1.90;;;;;;;;;;4991136;28;20772;-70
2023/08/10 09:12:27;;;;;;;2.10;1.90;;;;;;;;;;4988998;28;20189;-70
2023/08/10 09:15:22;;;;;;;3.00;1.88;;;;;;;;;;4990142;28;20199;-70
2023/08/10 09:17:52;;;;;;;3.75;1.80;;;;;;;;;;4973409;28;20554;-70
2023/08/10 09:20:27;;;;;;;5.60;2.05;;;;;;;;;;4990276;28;20191;-70
2023/08/10 09:22:53;;;;;;;2.97;2.10;;;;;;;;;;4972774;28;20192;-70
2023/08/10 09:25:18;;;;;;;5.80;3.05;;;;;;;;;;4971302;28;20250;-70
2023/08/10 09:27:44;;;;;;;5.25;2.40;;;;;;;;;;4990694;28;20548;-70
2023/08/10 09:30:10;;;;;;;3.45;2.22;;;;;;;;;;4986280;28;20207;-71
2023/08/10 09:32:35;;;;;;;3.30;2.00;;;;;;;;;;4986063;28;20769;-70
2023/08/10 09:35:01;;;;;;;5.68;2.20;;;;;;;;;;4990613;28;20179;-71
2023/08/10 09:37:26;;;;;;;2.40;2.13;;;;;;;;;;4971906;28;20183;-70
2023/08/10 09:39:59;;;;;;;3.53;1.70;;;;;;;;;;4989937;28;20238;-70
2023/08/10 09:42:24;;;;;;;6.03;2.08;;;;;;;;;;4990809;28;20183;-71
2023/08/10 09:44:51;;;;;;;1.85;1.50;;;;;;;;;;4971865;28;20802;-71
2023/08/10 09:47:17;;;;;;;3.17;1.98;;;;;;;;;;4990495;28;20553;-71
2023/08/10 09:50:00;;;;;;;3.00;1.38;;;;;;;;;;4984820;28;20313;-71
2023/08/10 09:52:26;;;;;;;1.70;1.33;;;;;;;;;;4989566;28;20182;-71
2023/08/10 09:54:52;;;;;;;3.85;1.83;;;;;;;;;;4990465;28;20187;-71
2023/08/10 09:57:18;;;;;;;2.67;1.35;;;;;;;;;;4989177;28;20194;-71
2023/08/10 09:59:43;;;;;;;4.20;2.05;;;;;;;;;;4989656;28;20215;-71
2023/08/10 10:02:09;;;;;;;4.28;2.15;;;;;;;;;;4989705;28;20347;-70
2023/08/10 10:04:35;;;;;;;1.98;1.25;;;;;;;;;;4989320;28;20187;-71
2023/08/10 10:07:00;;;;;;;2.17;1.40;;;;;;;;;;4989357;28;20195;-71
2023/08/10 10:09:26;;;;;;;1.52;1.30;;;;;;;;;;4972254;28;20875;-71
2023/08/10 10:11:53;;;;;;;2.25;1.40;;;;;;;;;;4974676;28;20184;-71
2023/08/10 10:14:19;;;;;;;2.35;1.38;;;;;;;;;;4972000;28;20492;-71
2023/08/10 10:16:44;;;;;;;2.40;1.40;;;;;;;;;;4994751;28;20183;-71
2023/08/10 10:19:09;;;;;;;4.35;1.38;;;;;;;;;;4994222;28;20288;-71
2023/08/10 10:21:34;;;;;;;1.58;0.90;;;;;;;;;;4994560;28;20741;-71
2023/08/10 10:24:03;;;;;;;2.10;1.15;;;;;;;;;;4992394;28;20277;-71
2023/08/10 10:26:29;;;;;;;1.95;1.38;;;;;;;;;;4992285;28;20187;-71
2023/08/10 10:29:13;;;;;;;3.70;1.35;;;;;;;;;;4992981;28;20210;-71
2023/08/10 10:31:39;;;;;;;2.50;1.15;;;;;;;;;;4981499;28;20186;-71
2023/08/10 10:34:04;;;;;;;1.05;0.90;;;;;;;;;;4991763;28;20180;-71
2023/08/10 10:36:31;;;;;;;1.98;1.20;;;;;;;;;;4991083;28;20180;-71
2023/08/10 10:39:04;;;;;;;2.38;0.80;;;;;;;;;;4983389;28;20215;-70
2023/08/10 10:41:34;;;;;;;3.83;1.40;;;;;;;;;;4967917;28;20195;-71
2023/08/10 10:44:00;;;;;;;4.05;1.63;;;;;;;;;;4979847;28;20183;-71
2023/08/10 10:46:32;;;;;;;2.63;1.20;;;;;;;;;;4955231;28;20186;-71
2023/08/10 10:48:57;;;;;;;2.63;1.23;;;;;;;;;;4972270;28;20222;-71
2023/08/10 10:51:23;;;;;;;3.00;1.35;;;;;;;;;;4971577;28;20183;-71
2023/08/10 10:53:51;;;;;;;1.85;1.20;;;;;;;;;;4960050;28;20187;-71
2023/08/10 10:56:16;;;;;;;1.65;1.23;;;;;;;;;;4973264;28;20184;-71
2023/08/10 10:58:42;;;;;;;2.77;0.73;;;;;;;;;;4977035;28;20234;-71
2023/08/10 11:01:08;;;;;;;2.28;1.02;;;;;;;;;;4984809;28;20850;-71
2023/08/10 11:03:33;;;;;;;1.27;1.17;;;;;;;;;;4974438;28;20190;-71
2023/08/10 11:05:59;;;;;;;3.05;1.30;;;;;;;;;;4972200;28;20195;-71
2023/08/10 11:08:24;;;;;;;3.65;1.20;;;;;;;;;;4971582;28;20211;-71
2023/08/10 11:10:51;;;;;;;1.80;1.20;;;;;;;;;;4973108;28;20794;-71
2023/08/10 11:13:16;;;;;;;1.77;1.08;;;;;;;;;;4953053;28;20183;-71
2023/08/10 11:15:44;;;;;;;3.03;1.45;;;;;;;;;;4970792;28;20182;-71
2023/08/10 11:18:11;;;;;;;2.63;1.05;;;;;;;;;;4972218;28;20212;-71
2023/08/10 11:20:41;;;;;;;3.35;1.50;;;;;;;;;;4973979;28;20229;-71
2023/08/10 11:23:06;;;;;;;3.47;1.50;;;;;;;;;;4972993;28;20194;-71
2023/08/10 11:25:32;;;;;;;3.67;1.35;;;;;;;;;;4959790;28;20184;-71
2023/08/10 11:27:57;;;;;;;2.47;1.35;;;;;;;;;;4972796;28;22255;-71
2023/08/10 11:30:23;;;;;;;4.03;1.25;;;;;;;;;;4971402;28;20210;-71
2023/08/10 11:32:51;;;;;;;2.55;1.10;;;;;;;;;;4954538;28;20195;-71
2023/08/10 11:35:20;;;;;;;4.13;1.58;;;;;;;;;;4954561;28;20563;-71
2023/08/10 11:37:45;;;;;;;1.63;1.25;;;;;;;;;;4956270;28;20704;-71
2023/08/10 11:40:18;;;;;;;2.20;1.23;;;;;;;;;;4953773;28;20198;-71
2023/08/10 11:42:45;;;;;;;2.85;1.38;;;;;;;;;;4976882;28;20197;-71
2023/08/10 11:45:16;;;;;;;1.70;1.20;;;;;;;;;;4981070;28;20599;-70
2023/08/10 11:47:42;;;;;;;2.15;1.30;;;;;;;;;;4981230;28;20190;-71
2023/08/10 11:50:09;;;;;;;2.10;1.13;;;;;;;;;;4976157;28;20211;-71
2023/08/10 11:52:34;;;;;;;2.90;1.55;;;;;;;;;;4975336;28;21008;-71
2023/08/10 11:54:59;;;;;;;3.85;1.60;;;;;;;;;;4975305;28;20971;-70
2023/08/10 11:57:36;;;;;;;2.80;1.58;;;;;;;;;;4975704;28;20186;-71
2023/08/10 12:00:16;;;;;;;4.63;1.85;;;;;;;;;;4980676;28;20667;-71
2023/08/10 12:02:41;;;;;;;3.83;1.77;;;;;;;;;;4974794;28;20190;-71
2023/08/10 12:05:07;;;;;;;2.67;1.77;;;;;;;;;;4978813;28;20708;-71
2023/08/10 12:07:32;;;;;;;1.73;1.42;;;;;;;;;;4975193;28;21059;-71
2023/08/10 12:09:58;;;;;;;2.40;1.70;;;;;;;;;;4975878;28;22074;-71
2023/08/10 12:12:23;;;;;;;5.95;1.55;;;;;;;;;;4975195;28;20187;-71
2023/08/10 12:14:53;;;;;;;2.80;1.80;;;;;;;;;;4973756;28;20184;-71
2023/08/10 12:17:18;;;;;;;2.63;1.58;;;;;;;;;;4976570;28;20290;-71
2023/08/10 12:19:44;;;;;;;3.17;1.40;;;;;;;;;;4973526;28;20686;-70
2023/08/10 12:22:09;;;;;;;3.60;2.00;;;;;;;;;;4974959;28;20218;-70
2023/08/10 12:24:34;;;;;;;4.33;1.50;;;;;;;;;;4979253;28;21368;-70
2023/08/10 12:26:59;;;;;;;2.47;1.93;;;;;;;;;;4973794;28;20927;-70
2023/08/10 12:29:24;;;;;;;2.90;1.60;;;;;;;;;;4973852;28;21093;-71
2023/08/10 12:31:50;;;;;;;2.97;2.20;;;;;;;;;;4973740;28;20946;-70
2023/08/10 12:34:15;;;;;;;2.80;1.63;;;;;;;;;;4973144;28;20540;-71
2023/08/10 12:36:40;;;;;;;3.35;2.08;;;;;;;;;;4975319;28;20941;-71
2023/08/10 12:39:07;;;;;;;2.07;1.57;;;;;;;;;;4974060;28;20230;-71
2023/08/10 12:41:32;;;;;;;5.47;2.47;;;;;;;;;;4979104;28;20465;-70
2023/08/10 12:43:59;;;;;;;2.45;1.65;;;;;;;;;;4979437;28;20245;-70
2023/08/10 12:46:24;;;;;;;2.33;1.88;;;;;;;;;;4974648;28;20249;-70
2023/08/10 12:48:49;;;;;;;3.57;2.00;;;;;;;;;;4974626;28;20207;-70
2023/08/10 12:51:14;;;;;;;2.42;1.88;;;;;;;;;;4974127;28;21188;-70
2023/08/10 12:53:40;;;;;;;3.57;1.80;;;;;;;;;;4973789;28;20220;-70
2023/08/10 12:56:05;;;;;;;3.45;1.98;;;;;;;;;;4973043;28;20429;-70
2023/08/10 12:58:30;;;;;;;2.43;1.70;;;;;;;;;;4974227;28;20329;-70
2023/08/10 13:00:55;;;;;;;3.30;1.92;;;;;;;;;;4974377;28;20428;-70
2023/08/10 13:03:21;;;;;;;3.73;1.90;;;;;;;;;;4974274;28;20306;-70
2023/08/10 13:05:46;;;;;;;2.33;1.70;;;;;;;;;;4975578;28;20424;-70
2023/08/10 13:08:11;;;;;;;3.23;2.13;;;;;;;;;;4974480;28;20514;-70
2023/08/10 13:10:36;;;;;;;3.15;2.10;;;;;;;;;;4979905;28;20460;-70
2023/08/10 13:13:02;;;;;;;3.50;1.40;;;;;;;;;;4957618;28;20187;-70
2023/08/10 13:15:28;;;;;;;3.97;2.13;;;;;;;;;;4975613;28;20421;-70
2023/08/10 13:17:53;;;;;;;5.00;1.77;;;;;;;;;;4975382;28;20187;-70
2023/08/10 13:20:18;;;;;;;4.77;2.00;;;;;;;;;;4975819;28;20524;-71
2023/08/10 13:22:44;;;;;;;2.97;2.17;;;;;;;;;;4972816;28;20424;-71
2023/08/10 13:25:09;;;;;;;2.92;2.10;;;;;;;;;;4972772;28;20421;-70
2023/08/10 13:27:34;;;;;;;1.77;1.45;;;;;;;;;;4977423;28;20187;-71
2023/08/10 13:30:00;;;;;;;2.97;1.92;;;;;;;;;;4955615;28;20329;-71
2023/08/10 13:32:25;;;;;;;3.70;2.50;;;;;;;;;;4972861;28;20256;-71
2023/08/10 13:34:51;;;;;;;3.70;1.92;;;;;;;;;;4972692;28;20543;-70
2023/08/10 13:37:17;;;;;;;6.43;2.15;;;;;;;;;;4973317;28;20206;-71
2023/08/10 13:39:42;;;;;;;4.72;1.77;;;;;;;;;;4955362;28;20221;-71
2023/08/10 13:42:07;;;;;;;4.30;2.27;;;;;;;;;;4973996;28;20183;-70
2023/08/10 13:44:33;;;;;;;3.15;1.70;;;;;;;;;;4978499;28;20439;-71
2023/08/10 13:46:58;;;;;;;5.20;1.77;;;;;;;;;;4974076;28;20179;-71
2023/08/10 13:49:24;;;;;;;3.08;2.00;;;;;;;;;;4974628;28;20963;-70
2023/08/10 13:51:50;;;;;;;5.13;1.88;;;;;;;;;;4977277;28;20990;-70
2023/08/10 13:54:15;;;;;;;4.90;2.35;;;;;;;;;;4954593;28;20840;-71
2023/08/10 13:56:52;;;;;;;2.55;2.35;;;;;;;;;;4973137;28;20558;-71
2023/08/10 13:59:17;;;;;;;5.78;2.63;;;;;;;;;;4971925;28;20213;-71
2023/08/10 14:01:43;;;;;;;3.45;2.30;;;;;;;;;;4983828;28;20195;-71
2023/08/10 14:04:08;;;;;;;4.25;2.03;;;;;;;;;;4976683;28;20194;-71
2023/08/10 14:06:33;;;;;;;3.87;2.47;;;;;;;;;;4972489;28;20283;-70
2023/08/10 14:08:58;;;;;;;4.63;2.30;;;;;;;;;;4973023;28;20471;-70
2023/08/10 14:11:23;;;;;;;1.97;1.63;;;;;;;;;;4973039;28;21142;-71
2023/08/10 14:13:49;;;;;;;1.90;1.43;;;;;;;;;;4975915;28;20421;-71
2023/08/10 14:16:15;;;;;;;6.57;2.00;;;;;;;;;;4976042;28;20425;-71
2023/08/10 14:18:41;;;;;;;2.95;2.38;;;;;;;;;;4974224;28;20210;-70
2023/08/10 14:21:06;;;;;;;2.27;1.80;;;;;;;;;;4972914;28;20182;-70
2023/08/10 14:23:31;;;;;;;6.67;2.50;;;;;;;;;;4954492;28;20448;-70
2023/08/10 14:25:56;;;;;;;4.07;2.43;;;;;;;;;;4960566;28;21717;-70
2023/08/10 14:28:21;;;;;;;2.07;1.87;;;;;;;;;;4977460;28;20460;-70
2023/08/10 14:30:47;;;;;;;3.57;2.27;;;;;;;;;;4973103;28;20547;-70
2023/08/10 14:33:12;;;;;;;3.60;2.60;;;;;;;;;;4972073;28;20437;-71
2023/08/10 14:35:37;;;;;;;2.97;2.00;;;;;;;;;;4974774;28;21092;-71